Friday, January 19, 2018, 10:34 PM EST
Back to Local

KGTB, Fort Drum / Wheeler-sack U. S. Army Airfield

Location: Fort Drum, NY, United States Lat: 44.05
Local Time: 10:34 PM EST ( 3:34 GMT) Lon: -75.733
Time Zone: US/Eastern Elev: 679 ft

Show me the last for .
Show Decoded

2018-01-19 21:56 METAR KGTB 200256Z COR 18010KT 10SM SCT130 M02/M07 RMK AO2 SLPNO T10221071 $ COR
                 0313 =
2018-01-19 20:56 METAR KGTB 200156Z 15009KT 10SM SCT130 M04/M08 A2979 RMK AO2A SLPNO T10381078 $
                 =
2018-01-19 19:56 METAR KGTB 200056Z 15009KT 10SM CLR M03/M08 A2980 RMK AO2A SLPNO T10351076 $ =
2018-01-19 18:56 METAR KGTB 192356Z 18010KT 10SM OVC110 M03/M07 A2982 RMK AO2A SLPNO 60000 4/009
                 T10261073 11011 21037 $ =
2018-01-19 17:56 METAR KGTB 192256Z 17007KT 10SM CLR M03/M07 A2983 RMK AO2A SLPNO T10321074 $ =
2018-01-19 16:56 METAR KGTB 192156Z COR 22007KT 10SM CLR M01/M06 A2983 RMK AO2A SLPNO T10151065 $
                 COR 2203 =
2018-01-19 16:26 METAR KGTB 192126Z 24010KT 10SM SCT025 BKN033 M01/M06 A2983 RMK AO2A SLPNO $ =
2018-01-19 15:56 METAR KGTB 192056Z 23008KT 10SM OVC025 M01/M06 A2983 RMK AO2A CIG 024 RWY03
                 SLPNO ALSTG ESTMD 60000 T10131061 $ =
2018-01-19 15:16 METAR KGTB 192016Z 21010KT 10SM OVC021 M02/M06 A2983 RMK AO2A SLPNO ALSTG ESTMD
                 $ =
2018-01-19 14:56 METAR KGTB 191956Z 19010KT 10SM OVC019 M02/M05 A2984 RMK AO2A CIG 017 RWY03
                 SLPNO ALSTG ESMTD T10191051 $ =
2018-01-19 13:56 METAR KGTB 191856Z 21006KT 10SM OVC015 M02/M05 A2986 RMK AO2A
                 SNE1756SNB1756E1758 SLPNO ALSTG ESTMD P0000 T10221055 $ =
2018-01-19 13:28 METAR KGTB 191828Z AUTO 21008KT 10SM OVC015 M02/M05 M RMK AO2
                 SNE1756DZB1756E1758 CIG 014 RWY03 SLPNO $ =
2018-01-19 12:56 METAR KGTB 191756Z 21008KT 9SM -SN OVC013 M03/M05 A2987 RMK AO2A SNE1656 SLPNO
                 ALSTG ESTMD P0000 60000 4/009 T10271050 11027 21032 $ =
2018-01-19 11:56 METAR KGTB 191656Z 21009KT 3SM -SN BR OVC011 M03/M05 A2987 RMK AO2A
                 SNE1556SNB1556E01SNB01E09SNB09E30SNB30E32SNB32 CIG 006 RWY03 SLPNO ALSTG ESTMD
                 P0000 T10301047 $ =
2018-01-19 11:29 METAR KGTB 191629Z 22008KT 3SM -SN BR OVC011 M03/M05 A2988 RMK AO2A VIS 2 1/2
                 RWY21 SNE1556SNB1556E01SNB01E09SNB09 CIG 006 RWY03 SLPNO $ =
2018-01-19 11:19 METAR KGTB 191619Z 21009KT 2 3/4SM -SN BR OVC011 M03/M05 A2989 RMK AO2A VIS 2
                 1/4 RWY33 SNE1556SNB1556E01SNB01E09SNB09 CIG 006 RWY03 SLPNO $ =
2018-01-19 11:09 METAR KGTB 191609Z 21008KT 3SM -SN BR OVC009 M03/M05 A2989 RMK AO2A VIS 2 1/2
                 RWY33 SNE1556SNB1556E01SNB01E09SNB09 CIG 006 RWY03 SLPNO $ =
2018-01-19 10:56 METAR KGTB 191556Z 22009KT 4SM -SN OVC009 M02/M06 A2990 RMK AO2A
                 SNE41DZB41E42SNB42 CIG 006 RWY03 SLPNO ALSTG ESTMD P0000 $ =
2018-01-19 10:45 METAR KGTB 191545Z 23009KT 4SM -SN OVC009 M A2991 RMK AO2A SNE41SNB41E42SNB42
                 CIG 006 RWY03 SLPNO ALSTG ESTMD $ =
2018-01-19 10:42 METAR KGTB 191542Z 22009KT 3SM -SN OVC009 M A2990 RMK AO2A SNE41SNB41E42SNB42
                 CIG 006 RWY03 SLPNO ALSTG ESTMD $ =
2018-01-19 10:34 METAR KGTB 191534Z 22009KT 2 3/4SM -SN OVC008 M02/M06 A2991 RMK AO2A VIS 2 1/4V2
                 3/4 VIS 2 RWY21 CIG 005 RWY03 SLPNO ALSTG ESTMD $ =
2018-01-19 10:14 METAR KGTB 191514Z 22007KT 2 1/4SM -SN OVC008 M02/M06 A2990 RMK AO2A CIG 005
                 RWY03 SLPNO ALSTG ESTMD $ =
2018-01-19 10:04 METAR KGTB 191504Z 22007KT 2 1/2SM -SN OVC008 M02/M06 A2990 RMK AO2A CIG 005
                 RWY03 SLPNO ALSTG ESTMD $ =
2018-01-19 09:56 METAR KGTB 191456Z 22008KT 2 3/4SM -SN OVC010 M02/M06 A2990 RMK AO2A VIS 2 1/4
                 RWY03 VIS 2 1/4 RWY21 CIG 005 RWY03 SLPNO ALSTG ESTMD P0000 60000 50003 $ =
2018-01-19 09:46 METAR KGTB 191446Z 23007KT 2 3/4SM -SN OVC012 M A2990 RMK AO2A VIS 2 1/4 RWY21
                 CIG 006 RWY03 SLPNO ALSTG ESTMD $ =
2018-01-19 09:26 METAR KGTB 191426Z 23007KT 4SM -SN OVC013 M03/M07 A2989 RMK AO2A CIG 006 RWY03
                 SLPNO ALSTG ESTMD $ =
2018-01-19 08:56 METAR KGTB 191356Z COR 22008KT 4SM -SN OVC015 M03/M07 A2989 RMK AO2A TWR VIS
                 3200 SNE15RAB15E21SNB21E30SNB30E32RAB32E36SNB36 CIG 014 RWY03 SLPNO ALSTG ESTMD
                 P0000 $ COR 1405 =
2018-01-19 07:56 METAR KGTB 191256Z 21005KT 10SM -UP OVC016 M03/M08 A2990 RMK AO2A UPB55 SLPNO
                 ALSTG ESTMD P0000 $ =
2018-01-19 07:55 METAR KGTB 191255Z 21006KT 10SM -UP OVC016 M03/M08 A2990 RMK AO2A UPB55 SLPNO
                 ALSTG ESTMD $ =
2018-01-19 07:06 METAR KGTB 191206Z 20007KT 10SM OVC019 M03/M08 A2989 RMK AO2A CIG 018 RWY03
                 SLPNO ALSTG ESTMD $ =
2018-01-19 06:56 METAR KGTB 191156Z 20008KT 10SM OVC020 M03/M08 A2989 RMK AO2A CIG 019 RWY03
                 SLPNO ALSTG ESTMD P0000 60000 4/009 55000 $ =
2018-01-19 06:06 METAR KGTB 191106Z 20008KT 10SM OVC020 M03/M10 A2988 RMK AO2A CIG 019 RWY03
                 SLPNO ALSTG ESTMD $ =
2018-01-19 05:56 METAR KGTB 191056Z 21007KT 10SM OVC019 M03/M10 A2988 RMK AO2A SLPNO ALSTG ESTMD
                 $ =
2018-01-19 05:16 METAR KGTB 191016Z 21009KT 10SM OVC019 M03/M10 A2988 RMK AO2A SLPNO ALSTG ESTMD
                 $ =
2018-01-19 04:56 METAR KGTB 190956Z 20008KT 10SM OVC020 M03/M10 A2988 RMK AO2A CIG 019 RWY03
                 SLPNO ALSTG ESTMD $ =
2018-01-19 03:56 METAR KGTB 190856Z 20008KT 10SM OVC020 M04/M10 A2989 RMK AO2A CIG 018 RWY03
                 SLPNO ALSTG ESTMD 56010 $ =
2018-01-19 02:56 METAR KGTB 190756Z 19009KT 10SM OVC020 M04/M09 A2990 RMK AO2A SNE30 CIG 019
                 RWY03 SLPNO ALSTG ESTMD $ =
2018-01-19 02:30 METAR KGTB 190730Z 21007KT 10SM OVC018 M04/M08 A2991 RMK SNE30 CIG 017 RWY03
                 SLPNO ALSTG ESTMD $ =
2018-01-19 01:56 METAR KGTB 190656Z 19010KT 10SM -SN OVC018 M04/M09 A2990 RMK AO2A SNB38 CIG 017
                 RWY03 SLPNO ALSTG ESTMD $ =
2018-01-19 01:38 METAR KGTB 190638Z 19011KT 10SM -SN OVC017 M04/M08 A2990 RMK SNB38 SLPNO ALSTG
                 ESTMD $ =
2018-01-19 00:56 METAR KGTB 190556Z COR 20007KT 10SM OVC015 M04/M08 A2992 RMK AO2A SNE52 CIG 014
                 RWY03 SLPNO ALSTG ESTMD P0000 60000 4/009 11046 21046 54000 $ COR 0600 =
2018-01-19 00:52 METAR KGTB 190552Z 20008KT 10SM OVC015 M03/M06 A2992 RMK AO2A SNE52 CIG 014
                 RWY03 SLPNO ALSTG ESTMD $ =
2018-01-19 00:34 METAR KGTB 190534Z 20008KT 10SM -SN FEW006 OVC015 M04/M07 A2993 RMK AO2A CIG 014
                 RWY03 SLPNO ALSTG ESTMD $ =
2018-01-19 00:24 METAR KGTB 190524Z 21007KT 9SM -SN BKN007 OVC017 M04/M07 A2993 RMK AO2A SLPNO
                 ALSTG ESTMD $ =
2018-01-19 00:16 METAR KGTB 190516Z 22009KT 4SM -SN OVC012 M04/M07 A2993 RMK AO2A CIG 011 RWY21
                 SLPNO ALSTG ESTMD $ =
2018-01-19 00:06 METAR KGTB 190506Z 21009KT 1 5/8SM -SN OVC012 M04/M07 A2993 RMK AO2A VIS 1 5/8V2
                 1/4 CIG 003 RWY03 SLPNO ALSTG ESTMD $ =
2018-01-18 23:56 METAR KGTB 190456Z COR 21008KT 2 1/2SM -SN OVC014 M04/M07 A2993 RMK AO2A VIS 2
                 1/2V4 SNB35 CIG 012 RWY03 SLPNO ALSTG ESTMD P0000 410391076 $ COR 0500 =
2018-01-18 23:55 METAR KGTB 190455Z COR 20008KT 2 1/2SM -SN OVC014 M03/M06 A2993 RMK AO2A VIS 2
                 1/2V5 SNB35 CIG 012 RWY03 SLPNO ALSTG ESTMD $ COR 0459 =
2018-01-18 23:35 METAR KGTB 190435Z 21008KT 10SM -SN OVC012 M03/M06 A2994 RMK AO2A UPB35 CIG 011
                 RWY03 SLPNO ALSTG ESTMD $ =
2018-01-18 22:56 METAR KGTB 190356Z 25007KT 10SM OVC010 M05/M06 A2993 RMK AO2A CIG 009 RWY03
                 SLPNO ALSTG ESTMD $ =

Support USWX by starting your Amazon purchase here.